Time;durP1;ratioP1;P1;durP2;ratioP2;P2;SDS_P1;SDS_P2;PMS_P1;PMS_P2;Temp;Humidity;BMP_temperature;BMP_pressure;BME280_temperature;BME280_humidity;BME280_pressure;Samples;Min_cycle;Max_cycle;Signal;HPM_P1;HPM_P2
2022/09/16 00:00:12;;;;;;;0.80;0.73;;;;;;;-145.23;100.00;58621.06;4993947;28;20229;-60
2022/09/16 00:02:39;;;;;;;2.05;1.00;;;;;;;-145.23;100.00;58621.06;4999812;28;20233;-59
2022/09/16 00:05:06;;;;;;;1.08;0.98;;;;;;;-145.23;100.00;58621.06;4993444;28;20252;-59
2022/09/16 00:07:32;;;;;;;1.92;0.95;;;;;;;-145.23;100.00;58621.06;4991577;28;20237;-59
2022/09/16 00:09:59;;;;;;;2.03;0.90;;;;;;;-145.23;100.00;58621.06;5004088;28;20247;-59
2022/09/16 00:12:26;;;;;;;1.15;0.90;;;;;;;-145.23;100.00;58621.06;4992571;28;20674;-59
2022/09/16 00:14:53;;;;;;;1.02;0.75;;;;;;;-145.23;100.00;58621.06;4994475;28;20225;-59
2022/09/16 00:17:21;;;;;;;1.67;1.38;;;;;;;-145.23;100.00;58621.06;4991117;28;20887;-59
2022/09/16 00:19:48;;;;;;;1.85;1.08;;;;;;;-145.23;100.00;58621.06;4985866;28;20241;-59
2022/09/16 00:22:15;;;;;;;3.17;1.10;;;;;;;-145.23;100.00;58621.06;4995357;28;20655;-59
2022/09/16 00:24:41;;;;;;;3.60;0.90;;;;;;;-145.23;100.00;58621.06;4987804;28;20226;-59
2022/09/16 00:27:08;;;;;;;1.33;0.93;;;;;;;-145.23;100.00;58621.06;4988018;28;20329;-60
2022/09/16 00:29:34;;;;;;;2.77;1.47;;;;;;;-145.23;100.00;58621.06;4987215;28;20620;-59
2022/09/16 00:32:01;;;;;;;1.47;0.90;;;;;;;-145.23;100.00;58621.06;4991070;28;20230;-59
2022/09/16 00:34:32;;;;;;;0.83;0.70;;;;;;;-145.23;100.00;58621.06;4990916;28;20719;-59
2022/09/16 00:36:58;;;;;;;2.10;1.13;;;;;;;-145.23;100.00;58621.06;4995290;28;22805;-59
2022/09/16 00:39:25;;;;;;;4.33;0.83;;;;;;;-145.23;100.00;58621.06;5002481;28;20253;-59
2022/09/16 00:41:51;;;;;;;1.53;0.70;;;;;;;-145.23;100.00;58621.06;4992261;28;20233;-63
2022/09/16 00:44:51;;;;;;;0.90;0.83;;;;;;;-145.23;100.00;58621.06;5002409;28;20605;-59
2022/09/16 00:47:21;;;;;;;2.43;1.13;;;;;;;-145.23;100.00;58621.06;4988966;28;20252;-59
2022/09/16 00:49:50;;;;;;;2.70;1.00;;;;;;;-145.23;100.00;58621.06;4984231;28;20611;-59
2022/09/16 00:52:17;;;;;;;1.63;0.93;;;;;;;-145.23;100.00;58621.06;5005558;28;20256;-59
2022/09/16 00:54:43;;;;;;;1.30;0.77;;;;;;;-145.23;100.00;58621.06;4997060;28;20263;-59
2022/09/16 00:57:12;;;;;;;1.63;0.63;;;;;;;-145.23;100.00;58621.06;4986542;28;20242;-59
2022/09/16 00:59:41;;;;;;;3.67;1.42;;;;;;;-145.23;100.00;58621.06;4995797;28;20237;-59
2022/09/16 01:02:11;;;;;;;1.95;0.93;;;;;;;-145.23;100.00;58621.06;5011135;28;20244;-59
2022/09/16 01:04:41;;;;;;;1.25;0.90;;;;;;;-145.23;100.00;58621.06;4989988;28;20260;-59
2022/09/16 01:07:10;;;;;;;1.55;0.75;;;;;;;-145.23;100.00;58621.06;4998592;28;20311;-58
2022/09/16 01:09:38;;;;;;;1.40;0.87;;;;;;;-145.23;100.00;58621.06;4988881;28;20260;-60
2022/09/16 01:12:05;;;;;;;1.57;0.73;;;;;;;-145.23;100.00;58621.06;4990922;28;20325;-61
2022/09/16 01:17:22;;;;;;;2.70;1.00;;;;;;;-145.23;100.00;58621.06;4996743;28;20255;-59
2022/09/16 01:20:04;;;;;;;0.80;0.80;;;;;;;-145.23;100.00;58621.06;4999457;28;20245;-59
2022/09/16 01:22:43;;;;;;;1.23;1.00;;;;;;;-145.23;100.00;58621.06;4995391;28;20286;-59
2022/09/16 01:25:20;;;;;;;0.83;0.77;;;;;;;-145.23;100.00;58621.06;4987228;28;20229;-59
2022/09/16 01:28:20;;;;;;;0.80;0.80;;;;;;;-145.23;100.00;58621.06;4995997;28;20619;-59
2022/09/16 01:31:02;;;;;;;1.83;1.00;;;;;;;-145.23;100.00;58621.06;4990333;28;20232;-59
2022/09/16 01:33:37;;;;;;;0.97;0.87;;;;;;;-145.23;100.00;58621.06;4992277;28;20233;-59
2022/09/16 01:36:14;;;;;;;3.43;1.27;;;;;;;-145.23;100.00;58621.06;4996446;28;20243;-59
2022/09/16 01:39:04;;;;;;;1.43;0.97;;;;;;;-145.23;100.00;58621.06;4994513;28;20244;-60
2022/09/16 01:41:39;;;;;;;1.47;1.37;;;;;;;-145.23;100.00;58621.06;4979048;28;20232;-59
2022/09/16 01:44:12;;;;;;;3.10;1.00;;;;;;;-145.23;100.00;58621.06;5000271;28;20304;-60
2022/09/16 01:46:45;;;;;;;3.47;1.30;;;;;;;-145.23;100.00;58621.06;4994015;28;20262;-59
2022/09/16 01:49:17;;;;;;;0.90;0.90;;;;;;;-145.23;100.00;58621.06;4987703;28;20292;-59
2022/09/16 01:51:49;;;;;;;2.30;1.30;;;;;;;-145.23;100.00;58621.06;5007475;28;20674;-59
2022/09/16 01:54:21;;;;;;;4.57;1.30;;;;;;;-145.23;100.00;58621.06;4993317;28;20236;-59
2022/09/16 01:56:53;;;;;;;2.07;1.10;;;;;;;-145.23;100.00;58621.06;4986124;28;20652;-59
2022/09/16 01:59:22;;;;;;;5.77;1.40;;;;;;;-145.23;100.00;58621.06;5000731;28;20678;-59
2022/09/16 02:01:54;;;;;;;3.27;1.07;;;;;;;-145.23;100.00;58621.06;4992907;28;20332;-59
2022/09/16 02:04:23;;;;;;;2.17;1.20;;;;;;;-145.23;100.00;58621.06;4999553;28;20232;-60
2022/09/16 02:06:52;;;;;;;4.00;1.40;;;;;;;-145.23;100.00;58621.06;4996533;28;20237;-59
2022/09/16 02:09:21;;;;;;;0.95;0.95;;;;;;;-145.23;100.00;58621.06;5000928;28;20237;-59
2022/09/16 02:11:49;;;;;;;2.03;1.00;;;;;;;-145.23;100.00;58621.06;4998232;28;20719;-59
2022/09/16 02:14:19;;;;;;;4.00;1.13;;;;;;;-145.23;100.00;58621.06;5007108;28;20233;-59
2022/09/16 02:16:52;;;;;;;1.10;1.00;;;;;;;-145.23;100.00;58621.06;5003559;28;20237;-59
2022/09/16 02:19:21;;;;;;;5.97;1.30;;;;;;;-145.23;100.00;58621.06;4997959;28;20237;-59
2022/09/16 02:21:49;;;;;;;1.57;1.33;;;;;;;-145.23;100.00;58621.06;4996626;28;20642;-59
2022/09/16 02:24:17;;;;;;;5.60;2.00;;;;;;;-145.23;100.00;58621.06;4999738;28;20240;-59
2022/09/16 02:26:46;;;;;;;1.57;1.47;;;;;;;-145.23;100.00;58621.06;5001219;28;20733;-59
2022/09/16 02:29:15;;;;;;;2.60;1.30;;;;;;;-145.23;100.00;58621.06;5012813;28;20745;-59
2022/09/16 02:31:44;;;;;;;2.73;1.40;;;;;;;-145.23;100.00;58621.06;4994063;28;20265;-59
2022/09/16 02:34:14;;;;;;;4.43;1.43;;;;;;;-145.23;100.00;58621.06;5013343;28;20287;-60
2022/09/16 02:36:43;;;;;;;4.90;1.53;;;;;;;-145.23;100.00;58621.06;4991945;28;20237;-60
2022/09/16 02:39:12;;;;;;;3.03;1.37;;;;;;;-145.23;100.00;58621.06;4998710;28;20249;-59
2022/09/16 02:41:40;;;;;;;2.87;1.43;;;;;;;-145.23;100.00;58621.06;5004748;28;20251;-60
2022/09/16 02:44:07;;;;;;;2.10;1.60;;;;;;;-145.23;100.00;58621.06;4992510;28;20230;-60
2022/09/16 02:46:39;;;;;;;3.47;1.93;;;;;;;-145.23;100.00;58621.06;4991149;28;20237;-59
2022/09/16 02:49:13;;;;;;;4.67;1.30;;;;;;;-145.23;100.00;58621.06;4997838;28;20252;-59
2022/09/16 02:51:45;;;;;;;4.60;1.37;;;;;;;-145.23;100.00;58621.06;4998256;28;20363;-60
2022/09/16 02:54:15;;;;;;;3.83;1.90;;;;;;;-145.23;100.00;58621.06;5006143;28;20230;-59
2022/09/16 02:56:42;;;;;;;3.17;1.57;;;;;;;-145.23;100.00;58621.06;5005075;28;20613;-60
2022/09/16 02:59:11;;;;;;;1.40;1.20;;;;;;;-145.23;100.00;58621.06;4992944;28;20255;-61
2022/09/16 03:01:41;;;;;;;4.27;2.13;;;;;;;-145.23;100.00;58621.06;4992255;28;20236;-59
2022/09/16 03:04:08;;;;;;;2.70;1.30;;;;;;;-145.23;100.00;58621.06;5000034;28;20258;-60
2022/09/16 03:06:37;;;;;;;2.40;1.77;;;;;;;-145.23;100.00;58621.06;5005283;28;20287;-60
2022/09/16 03:09:06;;;;;;;5.27;1.60;;;;;;;-145.23;100.00;58621.06;4994492;28;20749;-59
2022/09/16 03:11:54;;;;;;;3.47;1.30;;;;;;;-145.23;100.00;58621.06;4991975;28;20230;-60
2022/09/16 03:14:40;;;;;;;2.50;1.83;;;;;;;-145.23;100.00;58621.06;4993916;28;20230;-60
2022/09/16 03:17:15;;;;;;;4.70;1.27;;;;;;;-145.23;100.00;58621.06;4989275;28;20714;-60
2022/09/16 03:19:49;;;;;;;3.43;1.63;;;;;;;-145.23;100.00;58621.06;5008010;28;20236;-60
2022/09/16 03:22:23;;;;;;;2.27;1.57;;;;;;;-145.23;100.00;58621.06;4997672;28;20244;-59
2022/09/16 03:24:54;;;;;;;4.33;2.03;;;;;;;-145.23;100.00;58621.06;4990525;28;20819;-59
2022/09/16 03:27:25;;;;;;;1.90;1.23;;;;;;;-145.23;100.00;58621.06;4993403;28;20241;-59
2022/09/16 03:29:56;;;;;;;4.37;1.67;;;;;;;-145.23;100.00;58621.06;4985850;28;20609;-60
2022/09/16 03:32:24;;;;;;;3.33;1.43;;;;;;;-145.23;100.00;58621.06;4997766;28;20231;-59
2022/09/16 03:34:52;;;;;;;1.40;1.00;;;;;;;-145.23;100.00;58621.06;5003034;28;20764;-60
2022/09/16 03:37:22;;;;;;;2.50;1.80;;;;;;;-145.23;100.00;58621.06;4989707;28;20235;-59
2022/09/16 03:39:52;;;;;;;2.73;1.30;;;;;;;-145.23;100.00;58621.06;4991198;28;20339;-60
2022/09/16 03:42:19;;;;;;;6.40;2.00;;;;;;;-145.23;100.00;58621.06;4988592;28;20226;-58
2022/09/16 03:44:46;;;;;;;4.47;1.73;;;;;;;-145.23;100.00;58621.06;4999865;28;20260;-60
2022/09/16 03:47:12;;;;;;;1.73;1.63;;;;;;;-145.23;100.00;58621.06;5005359;28;20263;-60
2022/09/16 03:49:38;;;;;;;2.90;1.70;;;;;;;-145.23;100.00;58621.06;5009682;28;20248;-59
2022/09/16 03:52:06;;;;;;;4.60;2.03;;;;;;;-145.23;100.00;58621.06;4999104;28;20229;-59
2022/09/16 03:54:34;;;;;;;2.00;1.63;;;;;;;-145.23;100.00;58621.06;5000515;28;20234;-60
2022/09/16 03:57:01;;;;;;;2.27;1.50;;;;;;;-145.23;100.00;58621.06;4998372;28;20247;-59
2022/09/16 03:59:28;;;;;;;3.47;1.70;;;;;;;-145.23;100.00;58621.06;4994222;28;20234;-59
2022/09/16 04:01:55;;;;;;;3.63;1.53;;;;;;;-145.23;100.00;58621.06;4990771;28;20237;-59
2022/09/16 04:04:21;;;;;;;4.57;2.03;;;;;;;-145.23;100.00;58621.06;4995701;28;20229;-60
2022/09/16 04:06:48;;;;;;;4.77;2.37;;;;;;;-145.23;100.00;58621.06;4991633;28;20233;-59
2022/09/16 04:09:15;;;;;;;3.07;2.10;;;;;;;-145.23;100.00;58621.06;4989005;28;20320;-59
2022/09/16 04:11:43;;;;;;;7.17;2.10;;;;;;;-145.23;100.00;58621.06;4995790;28;20257;-60
2022/09/16 04:14:10;;;;;;;2.70;1.90;;;;;;;-145.23;100.00;58621.06;4998335;28;20242;-60
2022/09/16 04:16:36;;;;;;;2.37;1.80;;;;;;;-145.23;100.00;58621.06;5001755;28;20233;-59
2022/09/16 04:19:03;;;;;;;4.07;2.27;;;;;;;-145.23;100.00;58621.06;4996615;28;20761;-60
2022/09/16 04:21:30;;;;;;;3.17;2.00;;;;;;;-145.23;100.00;58621.06;4993690;28;20233;-60
2022/09/16 04:23:56;;;;;;;2.97;2.00;;;;;;;-145.23;100.00;58621.06;4992888;28;20238;-59
2022/09/16 04:26:22;;;;;;;3.13;1.80;;;;;;;-145.23;100.00;58621.06;5009474;28;20621;-59
2022/09/16 04:28:52;;;;;;;3.47;2.10;;;;;;;-145.23;100.00;58621.06;4992840;28;20810;-59
2022/09/16 04:31:18;;;;;;;3.87;1.90;;;;;;;-145.23;100.00;58621.06;4993360;28;20236;-59
2022/09/16 04:33:45;;;;;;;2.67;2.00;;;;;;;-145.23;100.00;58621.06;4991283;28;20233;-59
2022/09/16 04:36:13;;;;;;;6.33;1.93;;;;;;;-145.23;100.00;58621.06;4992487;28;20244;-59
2022/09/16 04:38:40;;;;;;;2.00;1.90;;;;;;;-145.23;100.00;58621.06;5004221;28;20229;-59
2022/09/16 04:41:08;;;;;;;4.27;1.87;;;;;;;-145.23;100.00;58621.06;4995544;28;20230;-59
2022/09/16 04:43:34;;;;;;;8.07;2.17;;;;;;;-145.23;100.00;58621.06;5001405;28;20242;-60
2022/09/16 04:46:03;;;;;;;4.90;2.23;;;;;;;-145.23;100.00;58621.06;4996588;28;20234;-59
2022/09/16 04:48:30;;;;;;;4.53;1.80;;;;;;;-145.23;100.00;58621.06;4998334;28;20642;-59
2022/09/16 04:51:03;;;;;;;2.53;1.70;;;;;;;-145.23;100.00;58621.06;4999061;28;20867;-60
2022/09/16 04:53:30;;;;;;;1.93;1.70;;;;;;;-145.23;100.00;58621.06;5001466;28;20718;-59
2022/09/16 04:56:03;;;;;;;3.57;2.03;;;;;;;-145.23;100.00;58621.06;4989933;28;20245;-59
2022/09/16 04:58:30;;;;;;;4.33;2.50;;;;;;;-145.23;100.00;58621.06;4997367;28;20325;-59
2022/09/16 05:00:56;;;;;;;2.53;2.33;;;;;;;-145.23;100.00;58621.06;4987670;28;20907;-59
2022/09/16 05:03:24;;;;;;;4.97;1.90;;;;;;;-145.23;100.00;58621.06;4991789;28;20226;-59
2022/09/16 05:05:51;;;;;;;5.60;2.50;;;;;;;-145.23;100.00;58621.06;4999064;28;20241;-60
2022/09/16 05:08:17;;;;;;;4.90;2.17;;;;;;;-145.23;100.00;58621.06;5005269;28;20244;-60
2022/09/16 05:10:43;;;;;;;4.47;1.60;;;;;;;-145.23;100.00;58621.06;4990074;28;20426;-60
2022/09/16 05:13:10;;;;;;;4.40;2.23;;;;;;;-145.23;100.00;58621.06;4988405;28;20230;-59
2022/09/16 05:15:36;;;;;;;5.67;1.93;;;;;;;-145.23;100.00;58621.06;4991655;28;20317;-60
2022/09/16 05:18:03;;;;;;;1.80;1.60;;;;;;;-145.23;100.00;58621.06;4990220;28;20241;-59
2022/09/16 05:20:31;;;;;;;7.17;2.10;;;;;;;-145.23;100.00;58621.06;4986553;28;20313;-59
2022/09/16 05:22:58;;;;;;;2.23;1.97;;;;;;;-145.23;100.00;58621.06;4993795;28;20267;-59
2022/09/16 05:25:25;;;;;;;4.03;2.03;;;;;;;-145.23;100.00;58621.06;4991760;28;20237;-60
2022/09/16 05:27:51;;;;;;;5.13;1.80;;;;;;;-145.23;100.00;58621.06;4993194;28;20241;-60
2022/09/16 05:30:18;;;;;;;5.93;1.97;;;;;;;-145.23;100.00;58621.06;4998465;28;20252;-60
2022/09/16 05:32:44;;;;;;;5.67;2.00;;;;;;;-145.23;100.00;58621.06;5000144;28;20232;-60
2022/09/16 05:35:11;;;;;;;1.70;1.60;;;;;;;-145.23;100.00;58621.06;4998142;28;20745;-59
2022/09/16 05:37:38;;;;;;;5.70;2.07;;;;;;;-145.23;100.00;58621.06;4985386;28;20233;-59
2022/09/16 05:40:06;;;;;;;6.77;2.40;;;;;;;-145.23;100.00;58621.06;4994105;28;20249;-59
2022/09/16 05:42:33;;;;;;;4.70;2.23;;;;;;;-145.23;100.00;58621.06;4997310;28;20237;-60
2022/09/16 05:44:59;;;;;;;2.83;1.97;;;;;;;-145.23;100.00;58621.06;4994441;28;20245;-59
2022/09/16 05:47:26;;;;;;;7.67;1.93;;;;;;;-145.23;100.00;58621.06;5002478;28;20237;-59
2022/09/16 05:49:53;;;;;;;5.70;2.20;;;;;;;-145.23;100.00;58621.06;4994248;28;20233;-61
2022/09/16 05:52:20;;;;;;;1.87;1.53;;;;;;;-145.23;100.00;58621.06;5000301;28;20591;-59
2022/09/16 05:54:48;;;;;;;2.10;1.63;;;;;;;-145.23;100.00;58621.06;4994123;28;20237;-59
2022/09/16 05:57:14;;;;;;;4.90;1.50;;;;;;;-145.23;100.00;58621.06;4989145;28;20230;-59
2022/09/16 05:59:41;;;;;;;8.83;2.10;;;;;;;-145.23;100.00;58621.06;4992684;28;20237;-60
2022/09/16 06:02:10;;;;;;;2.23;2.03;;;;;;;-145.23;100.00;58621.06;4992647;28;20241;-59
2022/09/16 06:04:37;;;;;;;4.63;2.00;;;;;;;-145.23;100.00;58621.06;4991582;28;20233;-60
2022/09/16 06:07:06;;;;;;;2.93;1.80;;;;;;;-145.23;100.00;58621.06;4992940;28;20238;-61
2022/09/16 06:09:32;;;;;;;6.17;2.50;;;;;;;-145.23;100.00;58621.06;4995797;28;20238;-59
2022/09/16 06:12:00;;;;;;;4.90;1.83;;;;;;;-145.23;100.00;58621.06;4991011;28;20238;-59
2022/09/16 06:14:27;;;;;;;6.67;1.90;;;;;;;-145.23;100.00;58621.06;4992834;28;20340;-59
2022/09/16 06:16:53;;;;;;;3.20;1.97;;;;;;;-145.23;100.00;58621.06;4992140;28;20262;-60
2022/09/16 06:19:20;;;;;;;4.43;2.10;;;;;;;-145.23;100.00;58621.06;4991179;28;20237;-59
2022/09/16 06:21:46;;;;;;;3.07;1.80;;;;;;;-145.23;100.00;58621.06;4990809;28;20240;-60
2022/09/16 06:24:14;;;;;;;3.33;2.03;;;;;;;-145.23;100.00;58621.06;4992169;28;20237;-60
2022/09/16 06:26:42;;;;;;;5.20;2.33;;;;;;;-145.23;100.00;58621.06;4989209;28;20228;-59
2022/09/16 06:29:11;;;;;;;4.07;2.00;;;;;;;-145.23;100.00;58621.06;4995719;28;20253;-60
2022/09/16 06:31:38;;;;;;;3.60;1.77;;;;;;;-145.23;100.00;58621.06;4995313;28;20245;-59
2022/09/16 06:34:05;;;;;;;1.70;1.37;;;;;;;-145.23;100.00;58621.06;4988927;28;20230;-60
2022/09/16 06:36:33;;;;;;;2.10;1.90;;;;;;;-145.23;100.00;58621.06;4988392;28;20312;-60
2022/09/16 06:39:00;;;;;;;4.90;2.10;;;;;;;-145.23;100.00;58621.06;4995164;28;20250;-60
2022/09/16 06:41:26;;;;;;;2.37;1.90;;;;;;;-145.23;100.00;58621.06;4991448;28;20242;-60
2022/09/16 06:43:53;;;;;;;6.40;2.50;;;;;;;-145.23;100.00;58621.06;4992895;28;20233;-60
2022/09/16 06:46:22;;;;;;;2.93;2.20;;;;;;;-145.23;100.00;58621.06;4989996;28;20759;-60
2022/09/16 06:48:50;;;;;;;2.57;1.40;;;;;;;-145.23;100.00;58621.06;4990757;28;20246;-59
2022/09/16 06:51:18;;;;;;;1.50;1.40;;;;;;;-145.23;100.00;58621.06;4989629;28;20261;-60
2022/09/16 06:53:46;;;;;;;3.37;1.80;;;;;;;-145.23;100.00;58621.06;4992980;28;20229;-57
2022/09/16 06:56:13;;;;;;;5.10;2.00;;;;;;;-145.23;100.00;58621.06;4994409;28;20217;-58
2022/09/16 06:58:42;;;;;;;9.23;1.80;;;;;;;-145.23;100.00;58621.06;4997567;28;20230;-58
2022/09/16 07:01:10;;;;;;;2.93;2.00;;;;;;;-145.23;100.00;58621.06;4991801;28;20241;-57
2022/09/16 07:03:39;;;;;;;7.17;1.70;;;;;;;-145.23;100.00;58621.06;4998851;28;20728;-59
2022/09/16 07:06:06;;;;;;;2.35;1.58;;;;;;;-145.23;100.00;58621.06;4991562;28;20238;-61
2022/09/16 07:08:34;;;;;;;3.17;1.77;;;;;;;-145.23;100.00;58621.06;4993308;28;20720;-58
2022/09/16 07:11:02;;;;;;;4.10;2.03;;;;;;;-145.23;100.00;58621.06;4990315;28;20855;-57
2022/09/16 07:13:28;;;;;;;2.60;1.30;;;;;;;-145.23;100.00;58621.06;5005303;28;20239;-60
2022/09/16 07:15:59;;;;;;;1.43;1.33;;;;;;;-145.23;100.00;58621.06;5003560;28;20701;-59
2022/09/16 07:18:26;;;;;;;6.80;1.97;;;;;;;-145.23;100.00;58621.06;4989714;28;20700;-59
2022/09/16 07:21:00;;;;;;;2.42;1.83;;;;;;;-145.23;100.00;58621.06;4995433;28;20227;-59
2022/09/16 07:23:29;;;;;;;4.43;1.60;;;;;;;-145.23;100.00;58621.06;4993660;28;20605;-59
2022/09/16 07:26:00;;;;;;;2.85;1.60;;;;;;;-145.23;100.00;58621.06;4995132;28;20607;-58
2022/09/16 07:28:27;;;;;;;1.52;1.10;;;;;;;-145.23;100.00;58621.06;4996402;28;20417;-58
2022/09/16 07:30:53;;;;;;;3.65;1.63;;;;;;;-145.23;100.00;58621.06;4990071;28;20606;-59
2022/09/16 07:33:20;;;;;;;3.60;1.33;;;;;;;-145.23;100.00;58621.06;4996967;28;20894;-58
2022/09/16 07:35:46;;;;;;;3.78;1.33;;;;;;;-145.23;100.00;58621.06;4995964;28;20233;-58
2022/09/16 07:38:14;;;;;;;9.25;1.50;;;;;;;-145.23;100.00;58621.06;4994377;28;20242;-59
2022/09/16 07:40:41;;;;;;;2.83;1.13;;;;;;;-145.23;100.00;58621.06;4994777;28;20237;-58
2022/09/16 07:43:08;;;;;;;1.33;1.10;;;;;;;-145.23;100.00;58621.06;5006061;28;20248;-59
2022/09/16 07:45:35;;;;;;;2.92;1.38;;;;;;;-145.23;100.00;58621.06;4988402;28;20324;-57
2022/09/16 07:48:02;;;;;;;1.75;0.95;;;;;;;-145.23;100.00;58621.06;4996800;28;20237;-58
2022/09/16 07:50:28;;;;;;;2.97;1.75;;;;;;;-145.23;100.00;58621.06;4989118;28;20238;-59
2022/09/16 07:52:55;;;;;;;3.28;1.10;;;;;;;-145.23;100.00;58621.06;4989089;28;20237;-59
2022/09/16 07:55:27;;;;;;;4.05;1.58;;;;;;;-145.23;100.00;58621.06;4991598;28;20233;-58
2022/09/16 07:57:53;;;;;;;2.92;1.00;;;;;;;-145.23;100.00;58621.06;4996548;28;20241;-59
2022/09/16 08:00:20;;;;;;;4.13;1.08;;;;;;;-145.23;100.00;58621.06;4988934;28;20248;-59
2022/09/16 08:02:47;;;;;;;1.80;1.15;;;;;;;-145.23;100.00;58621.06;4997373;28;20229;-58
2022/09/16 08:05:15;;;;;;;3.33;1.42;;;;;;;-145.23;100.00;58621.06;4991250;28;20229;-60
2022/09/16 08:07:41;;;;;;;2.95;1.05;;;;;;;-145.23;100.00;58621.06;4997436;28;20241;-58
2022/09/16 08:10:08;;;;;;;4.47;1.48;;;;;;;-145.23;100.00;58621.06;4997695;28;20555;-62
2022/09/16 08:12:36;;;;;;;5.03;1.02;;;;;;;-145.23;100.00;58621.06;5011547;28;20236;-59
2022/09/16 08:15:02;;;;;;;3.08;1.25;;;;;;;-145.23;100.00;58621.06;4987831;28;20246;-61
2022/09/16 08:17:29;;;;;;;5.65;1.65;;;;;;;-145.23;100.00;58621.06;4993295;28;20728;-60
2022/09/16 08:19:55;;;;;;;2.75;1.25;;;;;;;-145.23;100.00;58621.06;4990176;28;20261;-61
2022/09/16 08:22:24;;;;;;;1.65;0.70;;;;;;;-145.23;100.00;58621.06;4994842;28;20328;-60
2022/09/16 08:24:51;;;;;;;2.30;1.63;;;;;;;-145.23;100.00;58621.06;4995500;28;20260;-60
2022/09/16 08:27:17;;;;;;;1.40;0.93;;;;;;;-145.23;100.00;58621.06;4991920;28;20237;-59
2022/09/16 08:29:45;;;;;;;2.53;0.70;;;;;;;-145.23;100.00;58621.06;4986544;28;20233;-53
2022/09/16 08:32:12;;;;;;;2.83;1.15;;;;;;;-145.23;100.00;58621.06;4984020;28;20618;-53
2022/09/16 08:34:39;;;;;;;3.63;1.40;;;;;;;-145.23;100.00;58621.06;5002318;28;20244;-53
2022/09/16 08:37:05;;;;;;;3.20;1.10;;;;;;;-145.23;100.00;58621.06;4998200;28;20241;-54
2022/09/16 08:39:32;;;;;;;3.00;1.10;;;;;;;-145.23;100.00;58621.06;5006221;28;20745;-51
2022/09/16 08:42:38;;;;;;;3.63;1.13;;;;;;;-145.23;100.00;58621.06;5002018;28;20619;-52
2022/09/16 08:45:19;;;;;;;3.60;1.10;;;;;;;-145.23;100.00;58621.06;4996756;28;20400;-52
2022/09/16 08:47:54;;;;;;;2.55;1.30;;;;;;;-145.23;100.00;58621.06;4995660;28;20774;-52
2022/09/16 08:50:26;;;;;;;1.45;0.90;;;;;;;-145.23;100.00;58621.06;5009539;28;20232;-52
2022/09/16 08:52:57;;;;;;;1.25;1.13;;;;;;;-145.23;100.00;58621.06;4999884;28;20222;-52
2022/09/16 08:55:30;;;;;;;5.30;1.05;;;;;;;-145.23;100.00;58621.06;5001626;28;20733;-52
2022/09/16 08:57:59;;;;;;;2.30;1.58;;;;;;;-145.23;100.00;58621.06;4990239;28;20782;-53
2022/09/16 09:00:27;;;;;;;5.13;1.10;;;;;;;-145.23;100.00;58621.06;4986931;28;20237;-54
2022/09/16 09:02:56;;;;;;;2.72;1.52;;;;;;;-145.23;100.00;58621.06;4992936;28;20896;-52
2022/09/16 09:05:28;;;;;;;1.80;1.00;;;;;;;-145.23;100.00;58621.06;4989568;28;20234;-52
2022/09/16 09:08:10;;;;;;;2.85;1.48;;;;;;;-145.23;100.00;58621.06;4996100;28;20237;-52
2022/09/16 09:10:42;;;;;;;1.83;1.08;;;;;;;-145.23;100.00;58621.06;4994261;28;20304;-53
2022/09/16 09:13:18;;;;;;;3.40;1.08;;;;;;;-145.23;100.00;58621.06;5006814;28;20302;-53
2022/09/16 09:15:48;;;;;;;2.05;0.80;;;;;;;-145.23;100.00;58621.06;5002918;28;20717;-51
2022/09/16 09:18:23;;;;;;;2.35;0.95;;;;;;;-145.23;100.00;58621.06;5002622;28;20226;-51
2022/09/16 09:20:56;;;;;;;3.53;1.02;;;;;;;-145.23;100.00;58621.06;4999722;28;20244;-52
2022/09/16 09:23:40;;;;;;;3.10;1.23;;;;;;;-145.23;100.00;58621.06;4990152;28;20237;-52
2022/09/16 09:26:12;;;;;;;5.35;1.63;;;;;;;-145.23;100.00;58621.06;5000121;28;20235;-53
2022/09/16 09:28:49;;;;;;;1.50;1.00;;;;;;;-145.23;100.00;58621.06;5008461;28;20787;-52
2022/09/16 09:31:22;;;;;;;5.95;1.20;;;;;;;-145.23;100.00;58621.06;4987225;28;20236;-52
2022/09/16 09:33:52;;;;;;;4.38;1.58;;;;;;;-145.23;100.00;58621.06;4999895;28;20818;-52
2022/09/16 09:36:27;;;;;;;2.55;1.35;;;;;;;-145.23;100.00;58621.06;4998772;28;20621;-52
2022/09/16 09:39:16;;;;;;;3.25;1.40;;;;;;;-145.23;100.00;58621.06;4996202;28;20229;-52
2022/09/16 09:41:45;;;;;;;8.73;1.67;;;;;;;-145.23;100.00;58621.06;4991636;28;20233;-52
2022/09/16 09:44:30;;;;;;;5.70;1.30;;;;;;;-145.23;100.00;58621.06;5006938;28;20229;-52
2022/09/16 09:47:00;;;;;;;3.50;1.00;;;;;;;-145.23;100.00;58621.06;4994964;28;20234;-52
2022/09/16 09:49:31;;;;;;;3.38;1.30;;;;;;;-145.23;100.00;58621.06;4995663;28;20225;-52
2022/09/16 09:52:01;;;;;;;2.15;1.50;;;;;;;-145.23;100.00;58621.06;5007786;28;20239;-52
2022/09/16 09:54:29;;;;;;;3.20;1.08;;;;;;;-145.23;100.00;58621.06;5003792;28;20473;-51
2022/09/16 09:56:59;;;;;;;3.50;1.23;;;;;;;-145.23;100.00;58621.06;4994359;28;20245;-52
2022/09/16 09:59:29;;;;;;;6.68;1.20;;;;;;;-145.23;100.00;58621.06;5003151;28;20228;-52
2022/09/16 10:01:56;;;;;;;4.43;1.70;;;;;;;-145.23;100.00;58621.06;4991057;28;20656;-52
2022/09/16 10:04:25;;;;;;;3.13;1.92;;;;;;;-145.23;100.00;58621.06;4996945;28;20225;-51
2022/09/16 10:06:54;;;;;;;7.75;1.63;;;;;;;-145.23;100.00;58621.06;4992295;28;20276;-52
2022/09/16 10:09:21;;;;;;;7.45;0.88;;;;;;;-145.23;100.00;58621.06;4985174;28;20272;-52
2022/09/16 10:11:50;;;;;;;4.10;1.15;;;;;;;-145.23;100.00;58621.06;5001471;28;20226;-52
2022/09/16 10:14:25;;;;;;;4.20;1.10;;;;;;;-145.23;100.00;58621.06;5006387;28;20314;-52
2022/09/16 10:16:53;;;;;;;3.20;1.33;;;;;;;-145.23;100.00;58621.06;4994603;28;20240;-54
2022/09/16 10:19:21;;;;;;;3.47;0.90;;;;;;;-145.23;100.00;58621.06;5006745;28;20961;-54
2022/09/16 10:21:52;;;;;;;3.53;1.15;;;;;;;-145.23;100.00;58621.06;5000433;28;20231;-53
2022/09/16 10:24:32;;;;;;;0.90;0.88;;;;;;;-145.23;100.00;58621.06;4995568;28;20750;-53
2022/09/16 10:27:00;;;;;;;1.95;0.85;;;;;;;-145.23;100.00;58621.06;4990164;28;20407;-52
2022/09/16 10:29:27;;;;;;;3.92;0.90;;;;;;;-145.23;100.00;58621.06;4993952;28;20229;-53
2022/09/16 10:31:54;;;;;;;1.90;1.02;;;;;;;-145.23;100.00;58621.06;4986391;28;20252;-54
2022/09/16 10:34:26;;;;;;;3.45;1.10;;;;;;;-145.23;100.00;58621.06;5003319;28;20225;-54
2022/09/16 10:37:02;;;;;;;1.08;0.75;;;;;;;-145.23;100.00;58621.06;4997908;28;20221;-54
2022/09/16 10:39:29;;;;;;;3.13;0.82;;;;;;;-145.23;100.00;58621.06;5000084;28;20699;-54
2022/09/16 10:41:56;;;;;;;2.15;0.70;;;;;;;-145.23;100.00;58621.06;4999325;28;20233;-53
2022/09/16 10:44:25;;;;;;;3.72;1.23;;;;;;;-145.23;100.00;58621.06;5009471;28;20224;-54
2022/09/16 10:46:53;;;;;;;3.95;1.35;;;;;;;-145.23;100.00;58621.06;5000329;28;20254;-53
2022/09/16 10:49:23;;;;;;;4.28;1.60;;;;;;;-145.23;100.00;58621.06;4999881;28;20237;-53
2022/09/16 10:51:49;;;;;;;2.85;0.68;;;;;;;-145.23;100.00;58621.06;4996357;28;20237;-53
2022/09/16 10:54:26;;;;;;;5.38;1.13;;;;;;;-145.23;100.00;58621.06;4999558;28;20222;-52
2022/09/16 10:56:54;;;;;;;5.97;1.63;;;;;;;-145.23;100.00;58621.06;5005153;28;21669;-53
2022/09/16 10:59:21;;;;;;;2.60;1.02;;;;;;;-145.23;100.00;58621.06;5003434;28;20250;-52
2022/09/16 11:01:54;;;;;;;4.03;0.77;;;;;;;-145.23;100.00;58621.06;4994198;28;20233;-53
2022/09/16 11:04:31;;;;;;;4.05;1.38;;;;;;;-145.23;100.00;58621.06;5004239;28;20601;-53
2022/09/16 11:07:08;;;;;;;1.83;0.70;;;;;;;-145.23;100.00;58621.06;4995154;28;20260;-53
2022/09/16 11:09:44;;;;;;;1.65;0.98;;;;;;;-145.23;100.00;58621.06;4995710;28;20241;-53
2022/09/16 11:12:35;;;;;;;2.55;0.73;;;;;;;-145.23;100.00;58621.06;5009005;28;20221;-56
2022/09/16 11:15:10;;;;;;;2.97;1.00;;;;;;;-145.23;100.00;58621.06;5006684;28;20235;-53
2022/09/16 11:17:48;;;;;;;3.15;1.05;;;;;;;-145.23;100.00;58621.06;4990412;28;20246;-53
2022/09/16 11:20:39;;;;;;;5.65;0.85;;;;;;;-145.23;100.00;58621.06;4993844;28;20238;-53
2022/09/16 11:23:10;;;;;;;3.38;1.17;;;;;;;-145.23;100.00;58621.06;4992843;28;20683;-53